sensor_id;sensor_type;location;lat;lon;timestamp;P1;durP1;ratioP1;P2;durP2;ratioP2
58017;SDS011;43810;50.860;19.226;2023-07-16T00:00:15;8.32;;;5.95;;
58017;SDS011;43810;50.860;19.226;2023-07-16T00:03:03;7.30;;;5.47;;
58017;SDS011;43810;50.860;19.226;2023-07-16T00:05:29;9.10;;;5.45;;
58017;SDS011;43810;50.860;19.226;2023-07-16T00:07:55;8.00;;;5.82;;
58017;SDS011;43810;50.860;19.226;2023-07-16T00:10:22;7.50;;;5.97;;
58017;SDS011;43810;50.860;19.226;2023-07-16T00:12:47;6.70;;;5.50;;
58017;SDS011;43810;50.860;19.226;2023-07-16T00:15:13;6.03;;;5.43;;
58017;SDS011;43810;50.860;19.226;2023-07-16T00:17:39;8.55;;;5.97;;
58017;SDS011;43810;50.860;19.226;2023-07-16T00:20:05;8.30;;;5.43;;
58017;SDS011;43810;50.860;19.226;2023-07-16T00:22:31;8.40;;;5.57;;
58017;SDS011;43810;50.860;19.226;2023-07-16T00:24:57;11.63;;;5.65;;
58017;SDS011;43810;50.860;19.226;2023-07-16T00:27:22;8.52;;;6.45;;
58017;SDS011;43810;50.860;19.226;2023-07-16T00:29:48;8.82;;;5.80;;
58017;SDS011;43810;50.860;19.226;2023-07-16T00:32:14;7.97;;;5.85;;
58017;SDS011;43810;50.860;19.226;2023-07-16T00:34:40;9.02;;;5.97;;
58017;SDS011;43810;50.860;19.226;2023-07-16T00:37:06;11.43;;;6.47;;
58017;SDS011;43810;50.860;19.226;2023-07-16T00:39:32;11.15;;;7.05;;
58017;SDS011;43810;50.860;19.226;2023-07-16T00:41:57;9.57;;;6.30;;
58017;SDS011;43810;50.860;19.226;2023-07-16T00:44:23;10.30;;;5.63;;
58017;SDS011;43810;50.860;19.226;2023-07-16T00:46:49;7.88;;;5.65;;
58017;SDS011;43810;50.860;19.226;2023-07-16T00:49:16;7.32;;;5.88;;
58017;SDS011;43810;50.860;19.226;2023-07-16T00:51:42;7.15;;;6.32;;
58017;SDS011;43810;50.860;19.226;2023-07-16T00:54:08;8.82;;;5.97;;
58017;SDS011;43810;50.860;19.226;2023-07-16T00:56:33;9.98;;;6.10;;
58017;SDS011;43810;50.860;19.226;2023-07-16T00:59:02;10.75;;;6.25;;
58017;SDS011;43810;50.860;19.226;2023-07-16T01:01:28;10.40;;;6.07;;
58017;SDS011;43810;50.860;19.226;2023-07-16T01:03:54;8.73;;;6.28;;
58017;SDS011;43810;50.860;19.226;2023-07-16T01:06:36;10.85;;;6.70;;
58017;SDS011;43810;50.860;19.226;2023-07-16T01:09:23;8.57;;;6.07;;
58017;SDS011;43810;50.860;19.226;2023-07-16T01:11:49;7.35;;;5.70;;
58017;SDS011;43810;50.860;19.226;2023-07-16T01:14:18;9.27;;;5.72;;
58017;SDS011;43810;50.860;19.226;2023-07-16T01:16:44;8.60;;;6.00;;
58017;SDS011;43810;50.860;19.226;2023-07-16T01:19:11;8.50;;;5.65;;
58017;SDS011;43810;50.860;19.226;2023-07-16T01:27:22;9.38;;;6.47;;
58017;SDS011;43810;50.860;19.226;2023-07-16T01:30:09;10.40;;;6.00;;
58017;SDS011;43810;50.860;19.226;2023-07-16T01:32:41;8.00;;;5.32;;
58017;SDS011;43810;50.860;19.226;2023-07-16T01:35:08;8.98;;;5.90;;
58017;SDS011;43810;50.860;19.226;2023-07-16T01:37:34;8.38;;;5.95;;
58017;SDS011;43810;50.860;19.226;2023-07-16T01:40:00;11.18;;;6.40;;
58017;SDS011;43810;50.860;19.226;2023-07-16T01:42:28;7.78;;;5.93;;
58017;SDS011;43810;50.860;19.226;2023-07-16T01:44:54;8.90;;;5.53;;
58017;SDS011;43810;50.860;19.226;2023-07-16T01:50:01;7.38;;;5.75;;
58017;SDS011;43810;50.860;19.226;2023-07-16T01:52:28;7.82;;;6.00;;
58017;SDS011;43810;50.860;19.226;2023-07-16T01:54:54;8.32;;;5.80;;
58017;SDS011;43810;50.860;19.226;2023-07-16T01:57:19;7.13;;;5.40;;
58017;SDS011;43810;50.860;19.226;2023-07-16T01:59:45;10.88;;;6.22;;
58017;SDS011;43810;50.860;19.226;2023-07-16T02:02:12;6.45;;;5.82;;
58017;SDS011;43810;50.860;19.226;2023-07-16T02:04:37;8.48;;;5.90;;
58017;SDS011;43810;50.860;19.226;2023-07-16T02:07:03;7.38;;;5.57;;
58017;SDS011;43810;50.860;19.226;2023-07-16T02:09:29;6.57;;;5.80;;
58017;SDS011;43810;50.860;19.226;2023-07-16T02:11:55;10.10;;;5.80;;
58017;SDS011;43810;50.860;19.226;2023-07-16T02:14:21;9.98;;;6.22;;
58017;SDS011;43810;50.860;19.226;2023-07-16T02:16:47;8.48;;;6.50;;
58017;SDS011;43810;50.860;19.226;2023-07-16T02:19:12;8.40;;;5.93;;
58017;SDS011;43810;50.860;19.226;2023-07-16T02:21:38;9.75;;;6.22;;
58017;SDS011;43810;50.860;19.226;2023-07-16T02:24:04;8.55;;;6.13;;
58017;SDS011;43810;50.860;19.226;2023-07-16T02:26:30;11.13;;;6.40;;
58017;SDS011;43810;50.860;19.226;2023-07-16T02:28:56;11.27;;;6.45;;
58017;SDS011;43810;50.860;19.226;2023-07-16T02:31:21;9.60;;;6.05;;
58017;SDS011;43810;50.860;19.226;2023-07-16T02:33:47;10.40;;;5.90;;
58017;SDS011;43810;50.860;19.226;2023-07-16T02:36:13;9.52;;;6.72;;
58017;SDS011;43810;50.860;19.226;2023-07-16T02:38:39;10.13;;;6.78;;
58017;SDS011;43810;50.860;19.226;2023-07-16T02:41:04;9.88;;;6.40;;
58017;SDS011;43810;50.860;19.226;2023-07-16T02:43:30;8.90;;;6.53;;
58017;SDS011;43810;50.860;19.226;2023-07-16T02:45:56;12.25;;;5.90;;
58017;SDS011;43810;50.860;19.226;2023-07-16T02:48:22;10.13;;;6.15;;
58017;SDS011;43810;50.860;19.226;2023-07-16T02:50:47;11.43;;;6.50;;
58017;SDS011;43810;50.860;19.226;2023-07-16T02:53:13;9.65;;;6.07;;
58017;SDS011;43810;50.860;19.226;2023-07-16T02:55:39;9.65;;;6.75;;
58017;SDS011;43810;50.860;19.226;2023-07-16T02:58:05;10.32;;;6.82;;
58017;SDS011;43810;50.860;19.226;2023-07-16T03:00:31;11.13;;;5.85;;
58017;SDS011;43810;50.860;19.226;2023-07-16T03:02:57;12.30;;;6.10;;
58017;SDS011;43810;50.860;19.226;2023-07-16T03:05:27;9.25;;;5.70;;
58017;SDS011;43810;50.860;19.226;2023-07-16T03:07:53;9.77;;;6.57;;
58017;SDS011;43810;50.860;19.226;2023-07-16T03:10:20;12.77;;;6.82;;
58017;SDS011;43810;50.860;19.226;2023-07-16T03:12:47;12.25;;;6.35;;
58017;SDS011;43810;50.860;19.226;2023-07-16T03:15:12;10.23;;;6.70;;
58017;SDS011;43810;50.860;19.226;2023-07-16T03:17:38;11.93;;;6.32;;
58017;SDS011;43810;50.860;19.226;2023-07-16T03:20:04;9.38;;;6.45;;
58017;SDS011;43810;50.860;19.226;2023-07-16T03:22:31;8.48;;;6.07;;
58017;SDS011;43810;50.860;19.226;2023-07-16T03:24:57;9.85;;;6.55;;
58017;SDS011;43810;50.860;19.226;2023-07-16T03:27:23;10.40;;;6.60;;
58017;SDS011;43810;50.860;19.226;2023-07-16T03:29:48;13.10;;;5.95;;
58017;SDS011;43810;50.860;19.226;2023-07-16T03:32:14;9.32;;;6.22;;
58017;SDS011;43810;50.860;19.226;2023-07-16T03:34:40;7.60;;;5.35;;
58017;SDS011;43810;50.860;19.226;2023-07-16T03:37:06;10.00;;;6.00;;
58017;SDS011;43810;50.860;19.226;2023-07-16T03:39:31;9.15;;;6.57;;
58017;SDS011;43810;50.860;19.226;2023-07-16T03:41:57;8.48;;;6.22;;
58017;SDS011;43810;50.860;19.226;2023-07-16T03:44:23;10.38;;;6.13;;
58017;SDS011;43810;50.860;19.226;2023-07-16T03:46:49;12.00;;;6.55;;
58017;SDS011;43810;50.860;19.226;2023-07-16T03:49:15;8.98;;;6.50;;
58017;SDS011;43810;50.860;19.226;2023-07-16T03:51:41;8.75;;;6.35;;
58017;SDS011;43810;50.860;19.226;2023-07-16T03:54:07;10.38;;;6.32;;
58017;SDS011;43810;50.860;19.226;2023-07-16T03:56:33;10.70;;;6.13;;
58017;SDS011;43810;50.860;19.226;2023-07-16T03:58:58;9.40;;;6.45;;
58017;SDS011;43810;50.860;19.226;2023-07-16T04:01:24;10.00;;;6.55;;
58017;SDS011;43810;50.860;19.226;2023-07-16T04:03:50;9.30;;;6.05;;
58017;SDS011;43810;50.860;19.226;2023-07-16T04:06:16;8.95;;;6.15;;
58017;SDS011;43810;50.860;19.226;2023-07-16T04:08:41;8.52;;;6.40;;
58017;SDS011;43810;50.860;19.226;2023-07-16T04:11:07;7.57;;;5.60;;
58017;SDS011;43810;50.860;19.226;2023-07-16T04:13:33;7.65;;;6.07;;
58017;SDS011;43810;50.860;19.226;2023-07-16T04:16:00;9.30;;;6.00;;
58017;SDS011;43810;50.860;19.226;2023-07-16T04:18:25;13.30;;;6.05;;
58017;SDS011;43810;50.860;19.226;2023-07-16T04:20:51;7.60;;;6.00;;
58017;SDS011;43810;50.860;19.226;2023-07-16T04:23:17;7.65;;;6.03;;
58017;SDS011;43810;50.860;19.226;2023-07-16T04:25:44;8.93;;;5.63;;
58017;SDS011;43810;50.860;19.226;2023-07-16T04:28:10;7.72;;;5.28;;
58017;SDS011;43810;50.860;19.226;2023-07-16T04:30:37;8.40;;;5.63;;
58017;SDS011;43810;50.860;19.226;2023-07-16T04:33:03;8.55;;;5.72;;
58017;SDS011;43810;50.860;19.226;2023-07-16T04:35:29;8.88;;;5.40;;
58017;SDS011;43810;50.860;19.226;2023-07-16T04:37:55;6.93;;;4.80;;
58017;SDS011;43810;50.860;19.226;2023-07-16T04:40:21;6.82;;;4.80;;
58017;SDS011;43810;50.860;19.226;2023-07-16T04:42:47;7.38;;;5.43;;
58017;SDS011;43810;50.860;19.226;2023-07-16T04:45:13;5.90;;;4.95;;
58017;SDS011;43810;50.860;19.226;2023-07-16T04:47:39;6.72;;;4.97;;
58017;SDS011;43810;50.860;19.226;2023-07-16T04:50:05;7.55;;;4.90;;
58017;SDS011;43810;50.860;19.226;2023-07-16T04:52:31;5.88;;;5.20;;
58017;SDS011;43810;50.860;19.226;2023-07-16T04:54:58;6.63;;;5.10;;
58017;SDS011;43810;50.860;19.226;2023-07-16T04:57:23;8.40;;;4.90;;
58017;SDS011;43810;50.860;19.226;2023-07-16T04:59:49;8.52;;;4.88;;
58017;SDS011;43810;50.860;19.226;2023-07-16T05:02:15;7.60;;;5.13;;
58017;SDS011;43810;50.860;19.226;2023-07-16T05:04:42;7.35;;;5.00;;
58017;SDS011;43810;50.860;19.226;2023-07-16T05:07:13;9.88;;;4.82;;
58017;SDS011;43810;50.860;19.226;2023-07-16T05:09:40;7.78;;;4.88;;
58017;SDS011;43810;50.860;19.226;2023-07-16T05:12:07;6.50;;;4.50;;
58017;SDS011;43810;50.860;19.226;2023-07-16T05:14:42;5.40;;;4.68;;
58017;SDS011;43810;50.860;19.226;2023-07-16T05:17:09;5.78;;;4.78;;
58017;SDS011;43810;50.860;19.226;2023-07-16T05:19:35;6.05;;;4.82;;
58017;SDS011;43810;50.860;19.226;2023-07-16T05:22:00;5.47;;;4.50;;
58017;SDS011;43810;50.860;19.226;2023-07-16T05:24:26;8.27;;;5.00;;
58017;SDS011;43810;50.860;19.226;2023-07-16T05:26:52;6.75;;;4.82;;
58017;SDS011;43810;50.860;19.226;2023-07-16T05:29:19;7.30;;;5.00;;
58017;SDS011;43810;50.860;19.226;2023-07-16T05:31:45;5.72;;;4.85;;
58017;SDS011;43810;50.860;19.226;2023-07-16T05:34:12;7.82;;;4.82;;
58017;SDS011;43810;50.860;19.226;2023-07-16T05:36:38;6.35;;;4.47;;
58017;SDS011;43810;50.860;19.226;2023-07-16T05:39:03;7.32;;;4.45;;
58017;SDS011;43810;50.860;19.226;2023-07-16T05:41:29;8.68;;;4.57;;
58017;SDS011;43810;50.860;19.226;2023-07-16T05:43:58;5.05;;;4.43;;
58017;SDS011;43810;50.860;19.226;2023-07-16T05:46:23;6.95;;;4.80;;
58017;SDS011;43810;50.860;19.226;2023-07-16T05:48:49;4.88;;;4.13;;
58017;SDS011;43810;50.860;19.226;2023-07-16T05:51:15;6.15;;;4.35;;
58017;SDS011;43810;50.860;19.226;2023-07-16T05:53:41;5.75;;;4.53;;
58017;SDS011;43810;50.860;19.226;2023-07-16T05:56:06;5.68;;;4.18;;
58017;SDS011;43810;50.860;19.226;2023-07-16T05:58:32;6.30;;;4.57;;
58017;SDS011;43810;50.860;19.226;2023-07-16T06:00:58;6.78;;;4.63;;
58017;SDS011;43810;50.860;19.226;2023-07-16T06:03:24;9.15;;;4.78;;
58017;SDS011;43810;50.860;19.226;2023-07-16T06:05:49;7.22;;;5.03;;
58017;SDS011;43810;50.860;19.226;2023-07-16T06:08:15;11.20;;;6.80;;
58017;SDS011;43810;50.860;19.226;2023-07-16T06:10:41;13.80;;;6.80;;
58017;SDS011;43810;50.860;19.226;2023-07-16T06:13:07;9.45;;;6.45;;
58017;SDS011;43810;50.860;19.226;2023-07-16T06:15:33;10.73;;;6.07;;
58017;SDS011;43810;50.860;19.226;2023-07-16T06:17:59;7.72;;;6.68;;
58017;SDS011;43810;50.860;19.226;2023-07-16T06:20:24;8.32;;;5.78;;
58017;SDS011;43810;50.860;19.226;2023-07-16T06:22:50;7.80;;;5.95;;
58017;SDS011;43810;50.860;19.226;2023-07-16T06:25:16;7.80;;;5.53;;
58017;SDS011;43810;50.860;19.226;2023-07-16T06:27:42;8.55;;;5.50;;
58017;SDS011;43810;50.860;19.226;2023-07-16T06:30:07;7.18;;;5.22;;
58017;SDS011;43810;50.860;19.226;2023-07-16T06:32:33;6.43;;;5.28;;
58017;SDS011;43810;50.860;19.226;2023-07-16T06:34:59;6.43;;;5.05;;
58017;SDS011;43810;50.860;19.226;2023-07-16T06:37:26;7.97;;;5.55;;
58017;SDS011;43810;50.860;19.226;2023-07-16T06:39:52;8.82;;;5.38;;
58017;SDS011;43810;50.860;19.226;2023-07-16T06:42:18;7.43;;;5.60;;
58017;SDS011;43810;50.860;19.226;2023-07-16T06:44:43;6.57;;;5.50;;
58017;SDS011;43810;50.860;19.226;2023-07-16T06:47:09;8.82;;;5.43;;
58017;SDS011;43810;50.860;19.226;2023-07-16T06:49:35;7.35;;;5.82;;
58017;SDS011;43810;50.860;19.226;2023-07-16T06:52:01;7.97;;;5.82;;
58017;SDS011;43810;50.860;19.226;2023-07-16T06:54:27;11.73;;;5.90;;
58017;SDS011;43810;50.860;19.226;2023-07-16T06:56:54;6.93;;;5.82;;
58017;SDS011;43810;50.860;19.226;2023-07-16T06:59:19;9.85;;;5.65;;
58017;SDS011;43810;50.860;19.226;2023-07-16T07:01:45;7.30;;;6.57;;
58017;SDS011;43810;50.860;19.226;2023-07-16T07:04:11;7.47;;;6.72;;
58017;SDS011;43810;50.860;19.226;2023-07-16T07:06:37;8.25;;;6.65;;
58017;SDS011;43810;50.860;19.226;2023-07-16T07:09:03;7.85;;;7.07;;
58017;SDS011;43810;50.860;19.226;2023-07-16T07:11:29;8.27;;;7.22;;
58017;SDS011;43810;50.860;19.226;2023-07-16T07:13:55;13.52;;;7.20;;
58017;SDS011;43810;50.860;19.226;2023-07-16T07:16:23;7.90;;;7.05;;
58017;SDS011;43810;50.860;19.226;2023-07-16T07:18:49;8.93;;;7.85;;
58017;SDS011;43810;50.860;19.226;2023-07-16T07:21:15;8.38;;;7.68;;
58017;SDS011;43810;50.860;19.226;2023-07-16T07:23:43;8.43;;;7.20;;
58017;SDS011;43810;50.860;19.226;2023-07-16T07:26:09;12.73;;;7.75;;
58017;SDS011;43810;50.860;19.226;2023-07-16T07:28:35;8.52;;;7.80;;
58017;SDS011;43810;50.860;19.226;2023-07-16T07:31:01;14.07;;;8.02;;
58017;SDS011;43810;50.860;19.226;2023-07-16T07:33:26;10.95;;;8.50;;
58017;SDS011;43810;50.860;19.226;2023-07-16T07:35:53;13.10;;;7.88;;
58017;SDS011;43810;50.860;19.226;2023-07-16T07:38:20;10.82;;;8.02;;
58017;SDS011;43810;50.860;19.226;2023-07-16T07:40:49;12.18;;;7.72;;
58017;SDS011;43810;50.860;19.226;2023-07-16T07:43:15;8.70;;;7.88;;
58017;SDS011;43810;50.860;19.226;2023-07-16T07:45:41;7.97;;;7.18;;
58017;SDS011;43810;50.860;19.226;2023-07-16T07:48:06;11.25;;;7.85;;
58017;SDS011;43810;50.860;19.226;2023-07-16T07:50:32;7.50;;;6.53;;
58017;SDS011;43810;50.860;19.226;2023-07-16T07:52:58;8.60;;;6.57;;
58017;SDS011;43810;50.860;19.226;2023-07-16T07:55:24;7.90;;;6.18;;
58017;SDS011;43810;50.860;19.226;2023-07-16T07:57:50;6.85;;;6.15;;
58017;SDS011;43810;50.860;19.226;2023-07-16T08:00:15;9.77;;;6.68;;
58017;SDS011;43810;50.860;19.226;2023-07-16T08:02:41;9.38;;;6.50;;
58017;SDS011;43810;50.860;19.226;2023-07-16T08:05:07;10.20;;;6.38;;
58017;SDS011;43810;50.860;19.226;2023-07-16T08:07:33;9.27;;;6.30;;
58017;SDS011;43810;50.860;19.226;2023-07-16T08:09:59;8.07;;;6.32;;
58017;SDS011;43810;50.860;19.226;2023-07-16T08:12:25;6.53;;;5.90;;
58017;SDS011;43810;50.860;19.226;2023-07-16T08:14:51;7.20;;;6.13;;
58017;SDS011;43810;50.860;19.226;2023-07-16T08:17:17;8.40;;;5.82;;
58017;SDS011;43810;50.860;19.226;2023-07-16T08:19:43;8.15;;;6.30;;
58017;SDS011;43810;50.860;19.226;2023-07-16T08:22:08;8.55;;;6.63;;
58017;SDS011;43810;50.860;19.226;2023-07-16T08:24:35;7.30;;;6.57;;
58017;SDS011;43810;50.860;19.226;2023-07-16T08:27:00;6.32;;;5.43;;
58017;SDS011;43810;50.860;19.226;2023-07-16T08:29:26;6.50;;;5.68;;
58017;SDS011;43810;50.860;19.226;2023-07-16T08:31:52;8.43;;;5.35;;
58017;SDS011;43810;50.860;19.226;2023-07-16T08:34:18;6.95;;;5.60;;
58017;SDS011;43810;50.860;19.226;2023-07-16T08:36:43;5.68;;;5.18;;
58017;SDS011;43810;50.860;19.226;2023-07-16T08:39:09;7.97;;;5.15;;
58017;SDS011;43810;50.860;19.226;2023-07-16T08:41:35;8.23;;;5.60;;
58017;SDS011;43810;50.860;19.226;2023-07-16T08:44:01;7.32;;;5.20;;
58017;SDS011;43810;50.860;19.226;2023-07-16T08:46:27;8.98;;;5.13;;
58017;SDS011;43810;50.860;19.226;2023-07-16T08:48:53;5.75;;;5.25;;
58017;SDS011;43810;50.860;19.226;2023-07-16T08:51:19;8.18;;;5.45;;
58017;SDS011;43810;50.860;19.226;2023-07-16T08:53:47;9.07;;;5.00;;
58017;SDS011;43810;50.860;19.226;2023-07-16T08:56:12;5.95;;;5.32;;
58017;SDS011;43810;50.860;19.226;2023-07-16T08:58:38;5.82;;;5.32;;
58017;SDS011;43810;50.860;19.226;2023-07-16T09:01:08;6.13;;;5.43;;
58017;SDS011;43810;50.860;19.226;2023-07-16T09:03:35;5.35;;;4.85;;
58017;SDS011;43810;50.860;19.226;2023-07-16T09:06:04;6.50;;;5.20;;
58017;SDS011;43810;50.860;19.226;2023-07-16T09:08:30;5.18;;;4.40;;
58017;SDS011;43810;50.860;19.226;2023-07-16T09:10:56;6.55;;;4.85;;
58017;SDS011;43810;50.860;19.226;2023-07-16T09:13:23;5.40;;;4.45;;
58017;SDS011;43810;50.860;19.226;2023-07-16T09:15:54;5.55;;;3.58;;
58017;SDS011;43810;50.860;19.226;2023-07-16T09:18:22;3.83;;;3.53;;
58017;SDS011;43810;50.860;19.226;2023-07-16T09:20:57;3.92;;;3.53;;
58017;SDS011;43810;50.860;19.226;2023-07-16T09:25:51;7.38;;;4.00;;
58017;SDS011;43810;50.860;19.226;2023-07-16T09:28:18;4.25;;;3.85;;
58017;SDS011;43810;50.860;19.226;2023-07-16T09:30:50;5.72;;;4.30;;
58017;SDS011;43810;50.860;19.226;2023-07-16T09:33:20;4.22;;;3.78;;
58017;SDS011;43810;50.860;19.226;2023-07-16T09:35:48;4.35;;;4.00;;
58017;SDS011;43810;50.860;19.226;2023-07-16T09:38:14;7.10;;;3.70;;
58017;SDS011;43810;50.860;19.226;2023-07-16T09:40:41;7.00;;;3.72;;
58017;SDS011;43810;50.860;19.226;2023-07-16T09:43:08;4.97;;;3.50;;
58017;SDS011;43810;50.860;19.226;2023-07-16T09:45:35;4.53;;;3.85;;
58017;SDS011;43810;50.860;19.226;2023-07-16T09:48:05;4.85;;;3.03;;
58017;SDS011;43810;50.860;19.226;2023-07-16T09:50:32;4.07;;;3.17;;
58017;SDS011;43810;50.860;19.226;2023-07-16T09:53:03;4.90;;;2.90;;
58017;SDS011;43810;50.860;19.226;2023-07-16T09:55:33;4.65;;;2.63;;
58017;SDS011;43810;50.860;19.226;2023-07-16T09:58:00;4.72;;;2.60;;
58017;SDS011;43810;50.860;19.226;2023-07-16T10:00:39;3.20;;;2.90;;
58017;SDS011;43810;50.860;19.226;2023-07-16T10:03:07;5.82;;;2.97;;
58017;SDS011;43810;50.860;19.226;2023-07-16T10:05:37;4.97;;;2.72;;
58017;SDS011;43810;50.860;19.226;2023-07-16T10:08:04;3.00;;;2.70;;
58017;SDS011;43810;50.860;19.226;2023-07-16T10:10:41;3.15;;;2.83;;
58017;SDS011;43810;50.860;19.226;2023-07-16T10:13:17;2.70;;;2.50;;
58017;SDS011;43810;50.860;19.226;2023-07-16T10:15:52;7.40;;;2.50;;
58017;SDS011;43810;50.860;19.226;2023-07-16T10:18:29;2.70;;;2.50;;
58017;SDS011;43810;50.860;19.226;2023-07-16T10:21:06;3.90;;;2.40;;
58017;SDS011;43810;50.860;19.226;2023-07-16T10:23:37;4.40;;;2.10;;
58017;SDS011;43810;50.860;19.226;2023-07-16T10:26:08;1.95;;;1.85;;
58017;SDS011;43810;50.860;19.226;2023-07-16T10:28:39;2.35;;;1.65;;
58017;SDS011;43810;50.860;19.226;2023-07-16T10:31:05;3.60;;;2.10;;
58017;SDS011;43810;50.860;19.226;2023-07-16T10:33:36;3.40;;;2.30;;
58017;SDS011;43810;50.860;19.226;2023-07-16T10:36:05;2.17;;;1.98;;
58017;SDS011;43810;50.860;19.226;2023-07-16T10:38:32;2.10;;;1.90;;
58017;SDS011;43810;50.860;19.226;2023-07-16T10:41:06;3.22;;;2.17;;
58017;SDS011;43810;50.860;19.226;2023-07-16T10:43:33;3.42;;;2.30;;
58017;SDS011;43810;50.860;19.226;2023-07-16T10:45:58;2.92;;;2.00;;
58017;SDS011;43810;50.860;19.226;2023-07-16T10:48:24;2.35;;;2.15;;
58017;SDS011;43810;50.860;19.226;2023-07-16T10:50:53;3.00;;;2.03;;
58017;SDS011;43810;50.860;19.226;2023-07-16T10:53:20;3.67;;;1.80;;
58017;SDS011;43810;50.860;19.226;2023-07-16T10:55:46;2.25;;;2.00;;
58017;SDS011;43810;50.860;19.226;2023-07-16T10:58:12;3.05;;;2.10;;
58017;SDS011;43810;50.860;19.226;2023-07-16T11:00:39;5.30;;;2.50;;
58017;SDS011;43810;50.860;19.226;2023-07-16T11:03:05;2.47;;;2.28;;
58017;SDS011;43810;50.860;19.226;2023-07-16T11:05:31;4.28;;;2.05;;
58017;SDS011;43810;50.860;19.226;2023-07-16T11:07:57;4.15;;;1.95;;
58017;SDS011;43810;50.860;19.226;2023-07-16T11:10:29;2.20;;;2.00;;
58017;SDS011;43810;50.860;19.226;2023-07-16T11:12:56;2.63;;;1.83;;
58017;SDS011;43810;50.860;19.226;2023-07-16T11:15:31;2.20;;;2.00;;
58017;SDS011;43810;50.860;19.226;2023-07-16T11:18:01;2.85;;;2.03;;
58017;SDS011;43810;50.860;19.226;2023-07-16T11:20:28;3.80;;;2.40;;
58017;SDS011;43810;50.860;19.226;2023-07-16T11:22:57;2.85;;;2.10;;
58017;SDS011;43810;50.860;19.226;2023-07-16T11:25:24;3.25;;;2.95;;
58017;SDS011;43810;50.860;19.226;2023-07-16T11:27:50;2.80;;;2.30;;
58017;SDS011;43810;50.860;19.226;2023-07-16T11:30:24;2.30;;;2.10;;
58017;SDS011;43810;50.860;19.226;2023-07-16T11:32:51;3.33;;;2.53;;
58017;SDS011;43810;50.860;19.226;2023-07-16T11:35:17;2.70;;;2.50;;
58017;SDS011;43810;50.860;19.226;2023-07-16T11:37:45;3.15;;;2.20;;
58017;SDS011;43810;50.860;19.226;2023-07-16T11:40:16;2.42;;;2.22;;
58017;SDS011;43810;50.860;19.226;2023-07-16T11:42:43;4.30;;;2.38;;
58017;SDS011;43810;50.860;19.226;2023-07-16T11:45:17;5.63;;;2.53;;
58017;SDS011;43810;50.860;19.226;2023-07-16T11:47:44;2.50;;;2.00;;
58017;SDS011;43810;50.860;19.226;2023-07-16T11:50:10;2.83;;;2.15;;
58017;SDS011;43810;50.860;19.226;2023-07-16T11:52:36;2.42;;;2.17;;
58017;SDS011;43810;50.860;19.226;2023-07-16T11:55:01;3.03;;;2.35;;
58017;SDS011;43810;50.860;19.226;2023-07-16T11:57:30;2.47;;;2.20;;
58017;SDS011;43810;50.860;19.226;2023-07-16T11:59:59;7.47;;;2.55;;
58017;SDS011;43810;50.860;19.226;2023-07-16T12:02:28;8.82;;;3.70;;
58017;SDS011;43810;50.860;19.226;2023-07-16T12:04:54;5.03;;;2.55;;
58017;SDS011;43810;50.860;19.226;2023-07-16T12:07:36;4.32;;;2.63;;
58017;SDS011;43810;50.860;19.226;2023-07-16T12:10:04;7.43;;;3.20;;
58017;SDS011;43810;50.860;19.226;2023-07-16T12:12:32;42.67;;;10.82;;
58017;SDS011;43810;50.860;19.226;2023-07-16T12:15:00;2.83;;;2.35;;
58017;SDS011;43810;50.860;19.226;2023-07-16T12:17:26;3.55;;;2.40;;
58017;SDS011;43810;50.860;19.226;2023-07-16T12:19:52;4.60;;;2.78;;
58017;SDS011;43810;50.860;19.226;2023-07-16T12:22:18;4.03;;;2.38;;
58017;SDS011;43810;50.860;19.226;2023-07-16T12:24:47;2.65;;;2.45;;
58017;SDS011;43810;50.860;19.226;2023-07-16T12:27:14;3.70;;;2.35;;
58017;SDS011;43810;50.860;19.226;2023-07-16T12:29:40;7.13;;;2.95;;
58017;SDS011;43810;50.860;19.226;2023-07-16T12:32:06;2.40;;;2.20;;
58017;SDS011;43810;50.860;19.226;2023-07-16T12:34:33;4.38;;;2.60;;
58017;SDS011;43810;50.860;19.226;2023-07-16T12:37:00;2.67;;;2.40;;
58017;SDS011;43810;50.860;19.226;2023-07-16T12:39:25;8.93;;;2.75;;
58017;SDS011;43810;50.860;19.226;2023-07-16T12:41:51;3.03;;;2.78;;
58017;SDS011;43810;50.860;19.226;2023-07-16T12:44:17;4.45;;;2.78;;
58017;SDS011;43810;50.860;19.226;2023-07-16T12:46:43;5.30;;;3.15;;
58017;SDS011;43810;50.860;19.226;2023-07-16T12:49:08;3.20;;;2.15;;
58017;SDS011;43810;50.860;19.226;2023-07-16T12:51:34;4.85;;;3.08;;
58017;SDS011;43810;50.860;19.226;2023-07-16T12:54:00;5.53;;;2.85;;
58017;SDS011;43810;50.860;19.226;2023-07-16T12:56:26;4.78;;;3.13;;
58017;SDS011;43810;50.860;19.226;2023-07-16T12:58:52;4.85;;;3.10;;
58017;SDS011;43810;50.860;19.226;2023-07-16T13:01:18;3.17;;;2.85;;
58017;SDS011;43810;50.860;19.226;2023-07-16T13:03:44;4.38;;;2.85;;
58017;SDS011;43810;50.860;19.226;2023-07-16T13:06:10;2.65;;;2.45;;
58017;SDS011;43810;50.860;19.226;2023-07-16T13:08:35;3.47;;;2.42;;
58017;SDS011;43810;50.860;19.226;2023-07-16T13:11:03;4.72;;;2.65;;
58017;SDS011;43810;50.860;19.226;2023-07-16T13:13:28;8.18;;;2.33;;
58017;SDS011;43810;50.860;19.226;2023-07-16T13:15:54;6.30;;;2.90;;
58017;SDS011;43810;50.860;19.226;2023-07-16T13:18:20;2.78;;;2.22;;
58017;SDS011;43810;50.860;19.226;2023-07-16T13:20:46;6.47;;;2.75;;
58017;SDS011;43810;50.860;19.226;2023-07-16T13:23:12;2.70;;;2.35;;
58017;SDS011;43810;50.860;19.226;2023-07-16T13:25:38;3.33;;;2.58;;
58017;SDS011;43810;50.860;19.226;2023-07-16T13:28:05;4.70;;;3.28;;
58017;SDS011;43810;50.860;19.226;2023-07-16T13:30:31;3.30;;;2.63;;
58017;SDS011;43810;50.860;19.226;2023-07-16T13:32:57;3.00;;;2.70;;
58017;SDS011;43810;50.860;19.226;2023-07-16T13:35:23;2.85;;;2.60;;
58017;SDS011;43810;50.860;19.226;2023-07-16T13:37:52;4.65;;;2.70;;
58017;SDS011;43810;50.860;19.226;2023-07-16T13:40:18;2.92;;;2.63;;
58017;SDS011;43810;50.860;19.226;2023-07-16T13:42:46;3.13;;;2.83;;
58017;SDS011;43810;50.860;19.226;2023-07-16T13:45:13;7.13;;;3.30;;
58017;SDS011;43810;50.860;19.226;2023-07-16T13:47:39;3.50;;;3.00;;
58017;SDS011;43810;50.860;19.226;2023-07-16T13:50:05;3.92;;;2.90;;
58017;SDS011;43810;50.860;19.226;2023-07-16T13:52:31;2.72;;;2.53;;
58017;SDS011;43810;50.860;19.226;2023-07-16T13:54:57;3.17;;;2.88;;
58017;SDS011;43810;50.860;19.226;2023-07-16T13:57:22;3.25;;;2.78;;
58017;SDS011;43810;50.860;19.226;2023-07-16T13:59:48;2.97;;;2.78;;
58017;SDS011;43810;50.860;19.226;2023-07-16T14:02:14;4.45;;;2.78;;
58017;SDS011;43810;50.860;19.226;2023-07-16T14:04:40;3.30;;;2.97;;
58017;SDS011;43810;50.860;19.226;2023-07-16T14:07:06;3.80;;;2.65;;
58017;SDS011;43810;50.860;19.226;2023-07-16T14:09:31;3.20;;;2.58;;
58017;SDS011;43810;50.860;19.226;2023-07-16T14:11:57;2.85;;;2.60;;
58017;SDS011;43810;50.860;19.226;2023-07-16T14:14:23;3.00;;;2.65;;
58017;SDS011;43810;50.860;19.226;2023-07-16T14:16:49;3.75;;;2.70;;
58017;SDS011;43810;50.860;19.226;2023-07-16T14:19:15;3.17;;;2.83;;
58017;SDS011;43810;50.860;19.226;2023-07-16T14:21:41;7.32;;;2.80;;
58017;SDS011;43810;50.860;19.226;2023-07-16T14:24:07;4.03;;;3.08;;
58017;SDS011;43810;50.860;19.226;2023-07-16T14:26:34;4.53;;;3.15;;
58017;SDS011;43810;50.860;19.226;2023-07-16T14:29:00;3.42;;;3.13;;
58017;SDS011;43810;50.860;19.226;2023-07-16T14:31:26;4.40;;;2.85;;
58017;SDS011;43810;50.860;19.226;2023-07-16T14:33:52;5.95;;;3.15;;
58017;SDS011;43810;50.860;19.226;2023-07-16T14:36:17;4.40;;;3.50;;
58017;SDS011;43810;50.860;19.226;2023-07-16T14:38:43;4.13;;;3.33;;
58017;SDS011;43810;50.860;19.226;2023-07-16T14:41:09;3.50;;;3.10;;